createdAt,value
2023-07-15T00:02:13.046Z,61.90
2023-07-15T00:04:42.947Z,64.50
2023-07-15T00:07:12.684Z,65.90
2023-07-15T00:09:46.099Z,63.00
2023-07-15T00:12:17.555Z,64.70
2023-07-15T00:14:47.117Z,67.10
2023-07-15T00:17:17.122Z,67.40
2023-07-15T00:19:49.346Z,65.30
2023-07-15T00:22:18.703Z,64.90
2023-07-15T00:24:51.201Z,66.70
2023-07-15T00:27:20.517Z,66.40
2023-07-15T00:29:50.148Z,63.50
2023-07-15T00:32:42.058Z,66.80
2023-07-15T00:35:38.991Z,65.70
2023-07-15T00:38:15.302Z,65.10
2023-07-15T00:40:50.394Z,65.50
2023-07-15T00:44:19.291Z,65.80
2023-07-15T00:47:23.734Z,64.90
2023-07-15T00:49:53.549Z,63.60
2023-07-15T00:52:23.893Z,64.20
2023-07-15T01:07:50.500Z,65.00
2023-07-15T01:10:29.823Z,61.90
2023-07-15T01:13:08.254Z,64.30
2023-07-15T01:15:49.941Z,66.10
2023-07-15T01:18:20.168Z,66.10
2023-07-15T01:21:38.392Z,66.20
2023-07-15T01:24:09.951Z,65.90
2023-07-15T01:27:29.941Z,64.10
2023-07-15T01:30:16.766Z,60.50
2023-07-15T01:36:04.914Z,35.50
2023-07-15T01:38:51.513Z,36.10
2023-07-15T01:48:56.876Z,31.20
2023-07-15T01:52:09.137Z,34.20
2023-07-15T01:55:34.149Z,36.70
2023-07-15T02:01:23.613Z,36.30
2023-07-15T02:07:22.812Z,33.10
2023-07-15T02:28:23.643Z,31.70
2023-07-15T02:30:58.544Z,29.20
2023-07-15T02:33:31.252Z,29.30
2023-07-15T02:36:14.326Z,28.50
2023-07-15T02:38:49.426Z,29.60
2023-07-15T02:41:18.490Z,27.80
2023-07-15T02:43:47.774Z,28.20
2023-07-15T02:46:17.193Z,28.60
2023-07-15T02:48:46.712Z,28.50
2023-07-15T02:51:15.793Z,27.20
2023-07-15T02:53:49.328Z,27.20
2023-07-15T02:56:21.447Z,27.40
2023-07-15T02:58:50.975Z,27.20
2023-07-15T03:04:01.532Z,29.10
2023-07-15T03:06:33.949Z,29.50
2023-07-15T03:11:59.592Z,30.90
2023-07-15T03:14:29.281Z,31.00
2023-07-15T03:17:06.402Z,33.70
2023-07-15T03:19:37.687Z,36.70
2023-07-15T03:22:09.033Z,38.40
2023-07-15T03:24:44.504Z,40.10
2023-07-15T03:27:34.312Z,39.70
2023-07-15T03:30:23.477Z,33.30
2023-07-15T03:40:33.598Z,28.70
2023-07-15T03:43:11.148Z,29.70
2023-07-15T03:53:13.267Z,35.70
2023-07-15T03:56:09.898Z,35.30
2023-07-15T04:51:03.453Z,48.70
2023-07-15T04:54:12.756Z,46.80
2023-07-15T04:58:12.586Z,45.00
2023-07-15T05:00:24.870Z,42.70
2023-07-15T05:03:57.575Z,43.40
2023-07-15T05:13:49.260Z,44.90
2023-07-15T05:16:19.223Z,44.40
2023-07-15T05:18:49.846Z,44.60
2023-07-15T05:21:19.006Z,46.90
2023-07-15T05:23:48.822Z,48.10
2023-07-15T05:26:18.879Z,49.30
2023-07-15T05:28:52.284Z,49.30
2023-07-15T05:31:21.410Z,50.20
2023-07-15T05:33:49.940Z,51.80
2023-07-15T05:36:21.376Z,51.00
2023-07-15T05:38:54.845Z,51.40
2023-07-15T05:41:23.604Z,51.20
2023-07-15T05:43:52.394Z,50.00
2023-07-15T05:46:23.842Z,51.60
2023-07-15T05:48:52.716Z,51.00
2023-07-15T05:51:21.508Z,51.10
2023-07-15T05:53:53.000Z,51.40
2023-07-15T05:56:21.249Z,50.20
2023-07-15T05:58:50.513Z,50.60
2023-07-15T06:01:19.524Z,50.70
2023-07-15T06:03:54.387Z,49.30
2023-07-15T06:06:29.105Z,51.60
2023-07-15T06:09:05.171Z,49.50
2023-07-15T06:11:34.865Z,48.60
2023-07-15T06:17:10.174Z,51.70
2023-07-15T06:20:05.315Z,51.60
2023-07-15T06:22:43.856Z,50.10
2023-07-15T06:25:25.041Z,51.60
2023-07-15T06:27:53.530Z,50.70
2023-07-15T06:30:22.312Z,49.70
2023-07-15T06:32:56.289Z,49.70
2023-07-15T06:35:29.779Z,47.80
2023-07-15T06:38:00.116Z,50.10
2023-07-15T06:40:34.678Z,49.80
2023-07-15T06:43:05.951Z,50.30
2023-07-15T06:45:37.427Z,49.60
2023-07-15T06:48:11.744Z,48.20
2023-07-15T06:50:41.039Z,48.20
2023-07-15T06:53:11.006Z,48.50
2023-07-15T06:55:39.978Z,48.10
2023-07-15T06:58:11.470Z,48.60
2023-07-15T07:00:39.828Z,46.60
2023-07-15T07:10:38.504Z,50.00
2023-07-15T07:13:10.836Z,49.50
2023-07-15T07:15:40.194Z,48.80
2023-07-15T07:18:13.769Z,51.60
2023-07-15T07:20:44.629Z,49.70
2023-07-15T07:23:40.603Z,49.00
2023-07-15T07:26:13.787Z,49.60
2023-07-15T07:28:56.848Z,50.20
2023-07-15T07:31:32.163Z,48.60
2023-07-15T07:34:11.857Z,48.00
2023-07-15T07:36:45.626Z,50.00
2023-07-15T07:39:34.034Z,48.30
2023-07-15T07:42:04.136Z,50.80
2023-07-15T07:48:16.567Z,49.10
2023-07-15T07:50:54.897Z,49.40
2023-07-15T07:53:12.693Z,50.80
2023-07-15T07:53:27.454Z,48.40
2023-07-15T07:55:57.024Z,49.70
2023-07-15T07:58:28.031Z,48.30
2023-07-15T08:01:00.519Z,48.70
2023-07-15T08:03:29.920Z,49.20
2023-07-15T08:06:02.328Z,50.20
2023-07-15T08:08:32.020Z,50.80
2023-07-15T08:11:01.472Z,50.30
2023-07-15T08:13:30.895Z,50.20
2023-07-15T08:16:02.055Z,51.60
2023-07-15T08:18:31.409Z,51.40
2023-07-15T08:21:08.995Z,50.70
2023-07-15T08:23:38.568Z,50.80
2023-07-15T08:26:10.535Z,51.30
2023-07-15T08:28:40.839Z,52.20
2023-07-15T08:31:10.166Z,51.10
2023-07-15T08:33:39.804Z,50.30
2023-07-15T08:36:13.943Z,49.00
2023-07-15T08:38:46.415Z,49.80
2023-07-15T08:41:17.860Z,51.50
2023-07-15T08:43:50.977Z,50.20
2023-07-15T08:46:33.020Z,52.00
2023-07-15T08:49:05.207Z,51.10
2023-07-15T08:51:37.526Z,51.60
2023-07-15T08:54:09.442Z,51.60
2023-07-15T08:56:43.554Z,51.00
2023-07-15T08:59:16.575Z,51.50
2023-07-15T09:01:45.921Z,50.30
2023-07-15T09:04:18.555Z,54.30
2023-07-15T09:06:49.563Z,53.60
2023-07-15T09:09:19.173Z,51.50
2023-07-15T09:11:48.792Z,51.60
2023-07-15T09:14:19.840Z,51.40
2023-07-15T09:16:49.702Z,51.20
2023-07-15T09:19:30.564Z,51.50
2023-07-15T09:22:11.244Z,51.10
2023-07-15T09:31:56.431Z,52.20
2023-07-15T09:34:29.326Z,53.40
2023-07-15T09:37:01.423Z,52.10
2023-07-15T09:39:31.201Z,51.00
2023-07-15T09:42:11.369Z,52.10
2023-07-15T09:44:52.933Z,49.60
2023-07-15T09:47:22.777Z,49.60
2023-07-15T09:49:52.260Z,49.90
2023-07-15T09:52:22.253Z,50.50
2023-07-15T09:54:55.412Z,50.30
2023-07-15T09:57:28.843Z,50.00
2023-07-15T09:59:59.369Z,51.20
2023-07-15T10:02:43.497Z,51.80
2023-07-15T10:05:16.751Z,50.90
2023-07-15T10:07:46.306Z,52.50
2023-07-15T10:10:15.852Z,50.90
2023-07-15T10:12:49.076Z,51.30
2023-07-15T10:15:21.417Z,51.20
2023-07-15T10:17:55.008Z,52.10
2023-07-15T10:20:27.738Z,51.40
2023-07-15T10:23:10.229Z,51.10
2023-07-15T10:25:49.065Z,50.90
2023-07-15T10:28:23.683Z,52.50
2023-07-15T10:31:21.867Z,52.20
2023-07-15T10:34:06.362Z,49.80
2023-07-15T10:36:49.345Z,52.20
2023-07-15T10:39:21.557Z,52.40
2023-07-15T10:42:04.774Z,52.40
2023-07-15T10:44:43.944Z,51.30
2023-07-15T10:47:17.920Z,50.30
2023-07-15T10:49:52.697Z,50.10
2023-07-15T10:52:25.392Z,49.60
2023-07-15T10:54:59.258Z,50.40
2023-07-15T10:57:38.024Z,49.10
2023-07-15T11:00:14.537Z,50.50
2023-07-15T11:02:44.139Z,50.90
2023-07-15T11:05:16.431Z,49.90
2023-07-15T11:07:47.053Z,49.50
2023-07-15T11:10:21.330Z,48.90
2023-07-15T11:12:53.404Z,46.20
2023-07-15T11:15:23.464Z,46.30
2023-07-15T11:17:56.044Z,47.50
2023-07-15T11:20:25.590Z,49.20
2023-07-15T11:23:00.462Z,47.60
2023-07-15T11:25:33.584Z,49.10
2023-07-15T11:28:12.280Z,46.80
2023-07-15T11:30:47.728Z,46.00
2023-07-15T11:33:19.498Z,47.70
2023-07-15T11:35:49.217Z,48.70
2023-07-15T11:38:31.992Z,49.70
2023-07-15T11:41:04.804Z,51.30
2023-07-15T11:43:34.607Z,49.80
2023-07-15T11:46:10.649Z,48.90
2023-07-15T11:49:23.554Z,52.00
2023-07-15T11:51:57.472Z,50.80
2023-07-15T11:54:26.314Z,50.80
2023-07-15T11:56:59.363Z,52.00
2023-07-15T12:03:53.842Z,50.10
2023-07-15T12:06:28.953Z,49.00
2023-07-15T12:09:13.709Z,49.40
2023-07-15T12:11:43.628Z,51.00
2023-07-15T12:14:14.230Z,51.10
2023-07-15T12:16:44.605Z,51.10
2023-07-15T12:19:21.035Z,50.60
2023-07-15T12:21:53.612Z,47.50
2023-07-15T12:24:23.458Z,49.10
2023-07-15T12:27:27.820Z,49.30
2023-07-15T12:52:49.777Z,50.40
2023-07-15T13:00:51.195Z,49.70
2023-07-15T13:07:00.511Z,47.80
2023-07-15T13:16:49.302Z,45.00
2023-07-15T13:23:57.069Z,49.10
2023-07-15T13:27:05.868Z,47.80
2023-07-15T13:45:24.920Z,48.80
2023-07-15T13:47:55.930Z,44.10
2023-07-15T13:50:49.213Z,47.70
2023-07-15T13:53:24.297Z,47.00
2023-07-15T13:55:56.740Z,46.70
2023-07-15T13:58:25.998Z,49.10
2023-07-15T14:00:56.095Z,49.30
2023-07-15T14:03:30.578Z,50.50
2023-07-15T14:06:05.714Z,48.40
2023-07-15T14:08:40.149Z,50.10
2023-07-15T14:11:09.636Z,49.90
2023-07-15T14:13:47.735Z,50.00
2023-07-15T14:16:20.232Z,49.60
2023-07-15T14:18:53.698Z,47.50
2023-07-15T14:21:25.959Z,49.70
2023-07-15T14:24:08.040Z,46.20
2023-07-15T14:26:38.270Z,47.30
2023-07-15T14:29:08.009Z,43.40
2023-07-15T14:31:40.815Z,46.40
2023-07-15T14:34:10.705Z,49.10
2023-07-15T14:36:43.595Z,48.30
2023-07-15T14:39:15.820Z,48.70
2023-07-15T14:41:49.511Z,51.30
2023-07-15T14:44:24.648Z,49.30
2023-07-15T14:47:01.064Z,49.90
2023-07-15T14:49:36.607Z,50.30
2023-07-15T14:52:12.325Z,51.10
2023-07-15T14:54:43.638Z,50.50
2023-07-15T14:57:13.847Z,49.20
2023-07-15T14:59:45.589Z,44.60
2023-07-15T15:02:15.823Z,46.60
2023-07-15T15:04:54.853Z,47.30
2023-07-15T15:07:28.800Z,48.40
2023-07-15T15:10:01.609Z,49.00
2023-07-15T15:12:31.053Z,47.40
2023-07-15T15:15:12.042Z,51.20
2023-07-15T15:17:49.857Z,50.10
2023-07-15T15:20:29.863Z,48.80
2023-07-15T15:23:02.224Z,49.40
2023-07-15T15:25:31.797Z,48.90
2023-07-15T15:28:05.689Z,51.50
2023-07-15T15:30:37.590Z,49.90
2023-07-15T15:33:12.969Z,51.00
2023-07-15T15:35:55.083Z,51.60
2023-07-15T15:38:27.437Z,52.20
2023-07-15T15:41:02.021Z,52.30
2023-07-15T15:43:31.558Z,50.60
2023-07-15T15:46:05.111Z,49.40
2023-07-15T15:48:42.578Z,46.00
2023-07-15T15:51:16.543Z,48.00
2023-07-15T15:54:13.365Z,48.30
2023-07-15T15:56:48.795Z,51.40
2023-07-15T15:59:23.905Z,51.50
2023-07-15T16:01:55.827Z,50.90
2023-07-15T16:04:25.229Z,51.20
2023-07-15T16:06:59.927Z,53.60
2023-07-15T16:09:37.393Z,53.70
2023-07-15T16:12:10.487Z,51.90
2023-07-15T16:14:40.431Z,51.70
2023-07-15T16:17:10.499Z,53.60
2023-07-15T16:19:42.077Z,50.90
2023-07-15T16:22:12.524Z,53.00
2023-07-15T16:24:47.880Z,53.80
2023-07-15T16:27:22.306Z,55.30
2023-07-15T16:33:23.477Z,53.80
2023-07-15T16:35:56.169Z,52.50
2023-07-15T16:38:25.352Z,54.60
2023-07-15T16:40:54.786Z,54.00
2023-07-15T16:43:25.094Z,53.30
2023-07-15T16:45:54.220Z,53.80
2023-07-15T16:48:23.554Z,51.00
2023-07-15T16:51:10.011Z,54.80
2023-07-15T16:53:39.562Z,53.80
2023-07-15T16:59:42.930Z,53.50
2023-07-15T17:02:12.761Z,56.00
2023-07-15T17:04:45.587Z,56.50
2023-07-15T17:07:15.156Z,58.00
2023-07-15T17:09:47.250Z,61.00
2023-07-15T17:12:18.546Z,59.50
2023-07-15T17:14:48.228Z,57.10
2023-07-15T17:17:17.779Z,55.90
2023-07-15T17:19:47.049Z,58.30
2023-07-15T17:22:19.058Z,57.50
2023-07-15T17:24:57.234Z,58.10
2023-07-15T17:27:27.049Z,55.90
2023-07-15T17:29:57.080Z,57.90
2023-07-15T17:39:58.885Z,59.50
2023-07-15T17:42:27.585Z,58.40
2023-07-15T17:44:56.420Z,58.10
2023-07-15T17:47:25.334Z,60.20
2023-07-15T17:49:54.460Z,62.10
2023-07-15T17:52:23.148Z,62.70
2023-07-15T17:54:51.845Z,62.10
2023-07-15T17:57:20.281Z,58.40
2023-07-15T17:59:49.239Z,60.60
2023-07-15T18:02:18.183Z,63.00
2023-07-15T18:04:51.134Z,60.10
2023-07-15T18:07:21.086Z,63.20
2023-07-15T18:09:49.876Z,61.50
2023-07-15T18:12:22.850Z,62.80
2023-07-15T18:14:51.848Z,62.80
2023-07-15T18:17:20.568Z,64.60
2023-07-15T18:19:49.974Z,64.90
2023-07-15T18:22:20.467Z,69.30
2023-07-15T18:24:52.747Z,71.20
2023-07-15T18:27:22.826Z,72.40
2023-07-15T18:29:51.866Z,68.00
2023-07-15T18:32:21.405Z,73.80
2023-07-15T18:34:50.374Z,79.20
2023-07-15T18:37:19.036Z,87.70
2023-07-15T18:39:47.396Z,84.90
2023-07-15T18:42:15.910Z,84.20
2023-07-15T18:44:44.500Z,85.30
2023-07-15T18:47:17.187Z,85.70
2023-07-15T18:49:46.420Z,82.90
2023-07-15T18:52:34.459Z,89.70
2023-07-15T18:55:05.582Z,91.20
2023-07-15T18:57:35.370Z,89.90
2023-07-15T19:00:05.887Z,94.50
2023-07-15T19:02:34.585Z,90.70
2023-07-15T19:05:03.459Z,92.00
2023-07-15T19:07:32.367Z,90.20
2023-07-15T19:10:01.341Z,91.40
2023-07-15T19:12:30.184Z,90.70
2023-07-15T19:15:01.375Z,91.00
2023-07-15T19:17:30.762Z,92.90
2023-07-15T19:20:00.231Z,91.80
2023-07-15T19:22:29.504Z,90.70
2023-07-15T19:24:58.417Z,92.90
2023-07-15T19:27:34.317Z,98.90
2023-07-15T19:30:03.302Z,94.20
2023-07-15T19:32:31.953Z,93.90
2023-07-15T19:35:04.151Z,96.20
2023-07-15T19:37:33.092Z,94.70
2023-07-15T19:40:07.356Z,90.60
2023-07-15T19:42:36.008Z,88.20
2023-07-15T19:45:08.985Z,97.50
2023-07-15T19:47:37.553Z,98.70
2023-07-15T19:50:07.315Z,95.70
2023-07-15T19:52:35.695Z,93.90
2023-07-15T19:55:04.279Z,94.40
2023-07-15T19:57:32.674Z,92.20
2023-07-15T20:00:09.648Z,91.70
2023-07-15T20:02:38.142Z,88.00
2023-07-15T20:05:06.996Z,86.50
2023-07-15T20:07:40.126Z,87.80
2023-07-15T20:10:41.413Z,84.00
2023-07-15T20:13:10.276Z,75.40
2023-07-15T20:15:38.880Z,80.40
2023-07-15T20:18:09.386Z,79.80
2023-07-15T20:23:19.812Z,73.20
2023-07-15T20:25:48.263Z,77.50
2023-07-15T20:28:16.585Z,80.10
2023-07-15T20:30:46.531Z,81.00
2023-07-15T20:33:15.093Z,78.00
2023-07-15T20:35:49.534Z,66.70
2023-07-15T20:38:20.938Z,73.20
2023-07-15T20:40:56.104Z,72.70
2023-07-15T20:43:29.501Z,71.20
2023-07-15T20:46:01.463Z,75.70
2023-07-15T20:48:29.823Z,64.30
2023-07-15T20:50:58.277Z,71.70
2023-07-15T20:53:27.000Z,73.90
2023-07-15T20:55:57.469Z,73.50
2023-07-15T20:58:29.582Z,66.10
2023-07-15T21:00:58.284Z,64.50
2023-07-15T21:03:27.025Z,65.30
2023-07-15T21:06:03.802Z,67.60
2023-07-15T21:08:32.923Z,72.20
2023-07-15T21:11:02.689Z,68.60
2023-07-15T21:13:31.246Z,65.40
2023-07-15T21:16:02.507Z,64.60
2023-07-15T21:18:36.274Z,63.80
2023-07-15T21:21:05.686Z,61.20
2023-07-15T21:23:34.184Z,60.30
2023-07-15T21:26:06.938Z,63.70
2023-07-15T21:28:41.862Z,60.80
2023-07-15T21:31:10.827Z,62.10
2023-07-15T21:33:39.934Z,60.20
2023-07-15T21:36:08.602Z,59.30
2023-07-15T21:38:37.084Z,58.60
2023-07-15T21:41:05.804Z,59.40
2023-07-15T21:43:34.509Z,54.90
2023-07-15T21:46:03.117Z,52.00
2023-07-15T21:48:31.545Z,50.70
2023-07-15T21:51:03.007Z,45.10
2023-07-15T21:53:32.321Z,42.60
2023-07-15T21:56:00.703Z,42.00
2023-07-15T21:58:29.102Z,39.80
2023-07-15T22:00:59.707Z,39.40
2023-07-15T22:03:28.389Z,39.80
2023-07-15T22:05:58.023Z,39.40
2023-07-15T22:08:26.385Z,39.30
2023-07-15T22:10:54.940Z,39.10
2023-07-15T22:13:23.390Z,38.20
2023-07-15T22:15:52.427Z,38.80
2023-07-15T22:18:34.239Z,38.30
2023-07-15T22:21:07.022Z,37.50
2023-07-15T22:23:35.326Z,36.20
2023-07-15T22:26:06.865Z,35.30
2023-07-15T22:28:35.551Z,36.40
2023-07-15T22:31:03.993Z,37.30
2023-07-15T22:33:37.545Z,36.90
2023-07-15T22:36:06.367Z,35.40
2023-07-15T22:38:34.561Z,33.70
2023-07-15T22:41:02.967Z,34.10
2023-07-15T22:43:31.161Z,32.80
2023-07-15T22:45:59.503Z,32.00
2023-07-15T22:48:29.148Z,32.40
2023-07-15T22:50:57.524Z,34.60
2023-07-15T22:53:28.662Z,27.80
2023-07-15T22:55:57.300Z,29.00
2023-07-15T22:58:26.105Z,29.50
2023-07-15T23:00:57.681Z,28.40
2023-07-15T23:03:27.421Z,30.90
2023-07-15T23:05:56.575Z,30.50
2023-07-15T23:08:26.186Z,30.20
2023-07-15T23:10:54.729Z,30.60
2023-07-15T23:13:23.296Z,31.90
2023-07-15T23:15:59.577Z,30.30
2023-07-15T23:18:31.576Z,27.60
2023-07-15T23:20:59.974Z,25.90
2023-07-15T23:23:28.466Z,26.50
2023-07-15T23:25:57.221Z,25.30
2023-07-15T23:28:25.488Z,24.90
2023-07-15T23:30:53.972Z,22.30
2023-07-15T23:33:22.437Z,23.80
2023-07-15T23:35:53.175Z,22.10
2023-07-15T23:38:21.654Z,21.90
2023-07-15T23:40:50.156Z,23.20
2023-07-15T23:43:18.446Z,22.40
2023-07-15T23:45:50.063Z,21.50
2023-07-15T23:48:19.039Z,22.50
2023-07-15T23:50:50.666Z,22.80
2023-07-15T23:53:18.943Z,21.40
2023-07-15T23:55:47.110Z,22.00
2023-07-15T23:58:15.545Z,21.30
